createdAt,value
2022-12-04T00:00:11.011Z,-5.42
2022-12-04T00:01:17.375Z,-5.43
2022-12-04T00:02:22.189Z,-5.45
2022-12-04T00:03:25.404Z,-5.47
2022-12-04T00:04:28.706Z,-5.49
2022-12-04T00:05:31.874Z,-5.50
2022-12-04T00:06:34.987Z,-5.52
2022-12-04T00:07:38.100Z,-5.53
2022-12-04T00:08:42.141Z,-5.52
2022-12-04T00:09:45.270Z,-5.52
2022-12-04T00:10:48.455Z,-5.52
2022-12-04T00:11:51.545Z,-5.51
2022-12-04T00:12:54.773Z,-5.50
2022-12-04T00:14:04.584Z,-5.49
2022-12-04T00:16:13.305Z,-5.50
2022-12-04T00:17:16.587Z,-5.50
2022-12-04T00:18:20.093Z,-5.48
2022-12-04T00:19:23.203Z,-5.51
2022-12-04T00:20:26.940Z,-5.51
2022-12-04T00:21:30.318Z,-5.51
2022-12-04T00:22:34.231Z,-5.51
2022-12-04T00:23:38.618Z,-5.53
2022-12-04T00:24:41.729Z,-5.54
2022-12-04T00:25:48.247Z,-5.56
2022-12-04T00:26:52.100Z,-5.57
2022-12-04T00:27:55.355Z,-5.56
2022-12-04T00:28:59.113Z,-5.56
2022-12-04T00:30:02.292Z,-5.56
2022-12-04T00:31:07.486Z,-5.57
2022-12-04T00:32:10.774Z,-5.59
2022-12-04T00:33:14.013Z,-5.60
2022-12-04T00:34:17.207Z,-5.61
2022-12-04T00:35:20.409Z,-5.62
2022-12-04T00:36:26.724Z,-5.63
2022-12-04T00:37:29.979Z,-5.63
2022-12-04T00:38:33.373Z,-5.63
2022-12-04T00:39:36.601Z,-5.64
2022-12-04T00:40:39.815Z,-5.63
2022-12-04T00:41:43.034Z,-5.62
2022-12-04T00:42:46.186Z,-5.61
2022-12-04T00:43:49.612Z,-5.61
2022-12-04T00:44:52.970Z,-5.61
2022-12-04T00:45:56.526Z,-5.61
2022-12-04T00:46:59.936Z,-5.62
2022-12-04T00:48:03.166Z,-5.62
2022-12-04T00:49:06.391Z,-5.61
2022-12-04T00:50:11.091Z,-5.62
2022-12-04T00:51:17.580Z,-5.63
2022-12-04T00:52:20.828Z,-5.64
2022-12-04T00:53:24.055Z,-5.66
2022-12-04T00:54:27.223Z,-5.67
2022-12-04T00:55:30.541Z,-5.67
2022-12-04T00:56:33.898Z,-5.67
2022-12-04T00:57:36.982Z,-5.68
2022-12-04T00:58:40.463Z,-5.68
2022-12-04T00:59:43.553Z,-5.69
2022-12-04T01:00:46.912Z,-5.69
2022-12-04T01:01:50.207Z,-5.70
2022-12-04T01:02:53.670Z,-5.70
2022-12-04T01:03:57.243Z,-5.70
2022-12-04T01:05:01.208Z,-5.71
2022-12-04T01:06:05.242Z,-5.72
2022-12-04T01:07:08.356Z,-5.74
2022-12-04T01:08:12.239Z,-5.73
2022-12-04T01:09:15.452Z,-5.76
2022-12-04T01:10:18.651Z,-5.76
2022-12-04T01:11:22.979Z,-5.77
2022-12-04T01:12:26.132Z,-5.77
2022-12-04T01:13:29.234Z,-5.78
2022-12-04T01:14:32.446Z,-5.79
2022-12-04T01:15:41.926Z,-5.81
2022-12-04T01:16:46.691Z,-5.82
2022-12-04T01:17:50.090Z,-5.83
2022-12-04T01:18:53.247Z,-5.84
2022-12-04T01:19:56.630Z,-5.83
2022-12-04T01:20:59.958Z,-5.83
2022-12-04T01:22:03.467Z,-5.82
2022-12-04T01:23:06.577Z,-5.81
2022-12-04T01:24:10.111Z,-5.81
2022-12-04T01:25:13.322Z,-5.81
2022-12-04T01:26:16.496Z,-5.82
2022-12-04T01:27:19.584Z,-5.85
2022-12-04T01:28:23.470Z,-5.85
2022-12-04T01:29:26.632Z,-5.85
2022-12-04T01:30:29.907Z,-5.87
2022-12-04T01:31:33.235Z,-5.88
2022-12-04T01:32:36.402Z,-5.88
2022-12-04T01:33:40.785Z,-5.89
2022-12-04T01:34:43.887Z,-5.90
2022-12-04T01:35:56.085Z,-5.89
2022-12-04T01:36:59.298Z,-5.89
2022-12-04T01:38:02.383Z,-5.87
2022-12-04T01:39:05.538Z,-5.86
2022-12-04T01:40:14.441Z,-5.85
2022-12-04T01:41:21.187Z,-5.86
2022-12-04T01:42:25.059Z,-5.88
2022-12-04T01:43:31.078Z,-5.88
2022-12-04T01:44:34.271Z,-5.88
2022-12-04T01:45:40.949Z,-5.88
2022-12-04T01:46:46.530Z,-5.88
2022-12-04T01:47:49.865Z,-5.87
2022-12-04T01:48:54.072Z,-5.86
2022-12-04T01:49:59.208Z,-5.85
2022-12-04T01:51:08.909Z,-5.83
2022-12-04T01:52:21.483Z,-5.83
2022-12-04T01:53:25.300Z,-5.83
2022-12-04T01:54:32.090Z,-5.82
2022-12-04T01:55:35.483Z,-5.83
2022-12-04T01:56:45.349Z,-5.83
2022-12-04T01:57:48.594Z,-5.83
2022-12-04T01:58:55.327Z,-5.83
2022-12-04T02:00:01.726Z,-5.82
2022-12-04T02:01:09.081Z,-5.83
2022-12-04T02:02:15.925Z,-5.84
2022-12-04T02:03:19.239Z,-5.84
2022-12-04T02:04:23.053Z,-5.84
2022-12-04T02:05:26.258Z,-5.84
2022-12-04T02:06:29.554Z,-5.85
2022-12-04T02:07:33.109Z,-5.85
2022-12-04T02:08:37.361Z,-5.85
2022-12-04T02:09:41.972Z,-5.86
2022-12-04T02:10:48.839Z,-5.87
2022-12-04T02:12:13.575Z,-5.88
2022-12-04T02:13:29.245Z,-5.90
2022-12-04T02:14:53.881Z,-5.91
2022-12-04T02:16:03.716Z,-5.94
2022-12-04T02:17:22.702Z,-5.97
2022-12-04T02:18:32.625Z,-5.99
2022-12-04T02:19:54.870Z,-5.99
2022-12-04T02:21:10.880Z,-6.00
2022-12-04T02:22:23.331Z,-6.01
2022-12-04T02:23:52.727Z,-6.03
2022-12-04T02:25:05.892Z,-6.05
2022-12-04T02:26:33.992Z,-6.07
2022-12-04T02:27:43.849Z,-6.09
2022-12-04T02:28:57.120Z,-6.11
2022-12-04T02:30:06.906Z,-6.13
2022-12-04T02:31:13.731Z,-6.13
2022-12-04T02:32:32.381Z,-6.14
2022-12-04T02:33:51.041Z,-6.15
2022-12-04T02:35:00.420Z,-6.15
2022-12-04T02:36:07.115Z,-6.17
2022-12-04T02:37:19.751Z,-6.18
2022-12-04T02:38:28.975Z,-6.18
2022-12-04T02:39:41.159Z,-6.18
2022-12-04T02:40:54.085Z,-6.19
2022-12-04T02:42:07.058Z,-6.20
2022-12-04T02:43:28.890Z,-6.19
2022-12-04T02:44:38.547Z,-6.19
2022-12-04T02:45:57.248Z,-6.19
2022-12-04T02:47:04.181Z,-6.19
2022-12-04T02:48:08.518Z,-6.20
2022-12-04T02:49:18.295Z,-6.21
2022-12-04T02:50:23.966Z,-6.23
2022-12-04T02:51:29.938Z,-6.22
2022-12-04T02:52:45.643Z,-6.22
2022-12-04T02:53:52.316Z,-6.22
2022-12-04T02:55:00.362Z,-6.21
2022-12-04T02:56:10.580Z,-6.23
2022-12-04T02:57:17.216Z,-6.24
2022-12-04T02:58:41.364Z,-6.23
2022-12-04T02:59:47.067Z,-6.23
2022-12-04T03:00:52.407Z,-6.23
2022-12-04T03:01:59.173Z,-6.25
2022-12-04T03:03:05.890Z,-6.25
2022-12-04T03:04:21.593Z,-6.26
2022-12-04T03:05:31.058Z,-6.26
2022-12-04T03:06:37.718Z,-6.26
2022-12-04T03:07:59.592Z,-6.26
2022-12-04T03:09:09.131Z,-6.25
2022-12-04T03:10:16.015Z,-6.27
2022-12-04T03:11:19.282Z,-6.29
2022-12-04T03:12:25.951Z,-6.29
2022-12-04T03:13:32.608Z,-6.30
2022-12-04T03:14:39.113Z,-6.30
2022-12-04T03:15:48.528Z,-6.32
2022-12-04T03:16:55.274Z,-6.32
2022-12-04T03:18:02.075Z,-6.33
2022-12-04T03:19:14.778Z,-6.34
2022-12-04T03:20:19.327Z,-6.33
2022-12-04T03:21:28.583Z,-6.34
2022-12-04T03:22:34.463Z,-6.36
2022-12-04T03:23:41.297Z,-6.35
2022-12-04T03:24:50.986Z,-6.36
2022-12-04T03:25:57.785Z,-6.37
2022-12-04T03:27:07.453Z,-6.35
2022-12-04T03:28:14.219Z,-6.36
2022-12-04T03:29:33.046Z,-6.36
2022-12-04T03:30:42.487Z,-6.36
2022-12-04T03:31:55.223Z,-6.37
2022-12-04T03:33:04.802Z,-6.38
2022-12-04T03:34:09.943Z,-6.40
2022-12-04T03:35:45.407Z,-6.42
2022-12-04T03:36:58.063Z,-6.43
2022-12-04T03:38:14.042Z,-6.44
2022-12-04T03:39:32.913Z,-6.48
2022-12-04T03:40:40.014Z,-6.49
2022-12-04T03:42:10.830Z,-6.50
2022-12-04T03:43:26.560Z,-6.52
2022-12-04T03:44:36.399Z,-6.55
2022-12-04T03:45:46.018Z,-6.59
2022-12-04T03:46:55.927Z,-6.60
2022-12-04T03:48:02.863Z,-6.62
2022-12-04T03:49:13.137Z,-6.63
2022-12-04T03:50:22.668Z,-6.64
2022-12-04T03:51:38.227Z,-6.64
2022-12-04T03:52:54.069Z,-6.64
2022-12-04T03:54:15.733Z,-6.66
2022-12-04T03:55:28.531Z,-6.65
2022-12-04T03:56:35.305Z,-6.67
2022-12-04T03:57:42.230Z,-6.67
2022-12-04T03:58:51.986Z,-6.69
2022-12-04T04:00:05.382Z,-6.69
2022-12-04T04:01:12.072Z,-6.69
2022-12-04T04:02:18.956Z,-6.71
2022-12-04T04:03:31.525Z,-6.72
2022-12-04T04:04:37.049Z,-6.71
2022-12-04T04:05:43.819Z,-6.72
2022-12-04T04:06:56.568Z,-6.72
2022-12-04T04:08:24.529Z,-6.72
2022-12-04T04:09:31.279Z,-6.72
2022-12-04T04:10:34.570Z,-6.75
2022-12-04T04:11:44.434Z,-6.76
2022-12-04T04:12:53.000Z,-6.77
2022-12-04T04:14:24.176Z,-6.78
2022-12-04T04:15:45.731Z,-6.78
2022-12-04T04:17:13.630Z,-6.79
2022-12-04T04:18:35.811Z,-6.80
2022-12-04T04:20:00.488Z,-6.82
2022-12-04T04:21:22.023Z,-6.86
2022-12-04T04:22:44.893Z,-6.89
2022-12-04T04:24:09.056Z,-6.91
2022-12-04T04:25:15.730Z,-6.94
2022-12-04T04:26:18.900Z,-6.95
2022-12-04T04:27:21.997Z,-6.97
2022-12-04T04:28:31.267Z,-6.96
2022-12-04T04:29:34.765Z,-6.98
2022-12-04T04:30:37.820Z,-6.98
2022-12-04T04:31:43.473Z,-6.97
2022-12-04T04:32:52.945Z,-6.96
2022-12-04T04:34:20.591Z,-6.94
2022-12-04T04:35:39.530Z,-6.94
2022-12-04T04:37:08.823Z,-6.94
2022-12-04T04:38:21.351Z,-6.94
2022-12-04T04:39:39.569Z,-6.96
2022-12-04T04:40:52.477Z,-6.98
2022-12-04T04:42:18.876Z,-7.00
2022-12-04T04:43:37.677Z,-7.01
2022-12-04T04:44:53.324Z,-7.01
2022-12-04T04:46:06.170Z,-7.03
2022-12-04T04:47:12.926Z,-7.04
2022-12-04T04:48:22.354Z,-7.06
2022-12-04T04:49:29.093Z,-7.07
2022-12-04T04:50:34.330Z,-7.06
2022-12-04T04:51:37.733Z,-7.06
2022-12-04T04:52:44.476Z,-7.06
2022-12-04T04:53:54.290Z,-7.05
2022-12-04T04:55:00.693Z,-7.06
2022-12-04T04:56:06.464Z,-7.06
2022-12-04T04:57:09.548Z,-7.06
2022-12-04T04:58:19.218Z,-7.07
2022-12-04T04:59:22.467Z,-7.10
2022-12-04T05:00:25.639Z,-7.10
2022-12-04T05:01:28.886Z,-7.10
2022-12-04T05:02:33.189Z,-7.11
2022-12-04T05:03:36.402Z,-7.11
2022-12-04T05:04:39.609Z,-7.10
2022-12-04T05:05:42.823Z,-7.10
2022-12-04T05:06:47.436Z,-7.10
2022-12-04T05:07:50.738Z,-7.09
2022-12-04T05:08:54.034Z,-7.07
2022-12-04T05:09:57.535Z,-7.07
2022-12-04T05:11:01.221Z,-7.07
2022-12-04T05:12:04.448Z,-7.07
2022-12-04T05:13:08.892Z,-7.08
2022-12-04T05:14:12.135Z,-7.08
2022-12-04T05:15:15.615Z,-7.07
2022-12-04T05:16:18.945Z,-7.06
2022-12-04T05:17:22.129Z,-7.06
2022-12-04T05:18:25.341Z,-7.07
2022-12-04T05:19:50.159Z,-7.06
2022-12-04T05:20:53.741Z,-7.07
2022-12-04T05:21:57.010Z,-7.07
2022-12-04T05:23:00.244Z,-7.08
2022-12-04T05:24:03.566Z,-7.10
2022-12-04T05:25:07.382Z,-7.10
2022-12-04T05:26:11.702Z,-7.10
2022-12-04T05:27:14.915Z,-7.09
2022-12-04T05:28:18.147Z,-7.08
2022-12-04T05:29:21.404Z,-7.07
2022-12-04T05:30:24.702Z,-7.04
2022-12-04T05:31:28.012Z,-7.06
2022-12-04T05:32:31.330Z,-7.06
2022-12-04T05:33:34.582Z,-7.07
2022-12-04T05:34:37.859Z,-7.09
2022-12-04T05:35:40.989Z,-7.09
2022-12-04T05:36:44.324Z,-7.08
2022-12-04T05:37:47.587Z,-7.08
2022-12-04T05:38:50.828Z,-7.08
2022-12-04T05:39:54.555Z,-7.07
2022-12-04T05:40:59.168Z,-7.06
2022-12-04T05:42:02.896Z,-7.05
2022-12-04T05:43:06.105Z,-7.03
2022-12-04T05:44:09.418Z,-7.01
2022-12-04T05:45:12.789Z,-6.99
2022-12-04T05:46:16.427Z,-6.99
2022-12-04T05:47:19.897Z,-7.01
2022-12-04T05:48:23.138Z,-7.01
2022-12-04T05:49:28.957Z,-7.00
2022-12-04T05:50:32.337Z,-7.00
2022-12-04T05:51:35.491Z,-6.98
2022-12-04T05:52:38.610Z,-6.98
2022-12-04T05:53:41.879Z,-6.98
2022-12-04T05:54:45.297Z,-6.97
2022-12-04T05:55:57.019Z,-6.96
2022-12-04T05:57:00.275Z,-6.95
2022-12-04T05:58:04.408Z,-6.94
2022-12-04T05:59:07.491Z,-6.96
2022-12-04T06:00:11.591Z,-6.97
2022-12-04T06:01:20.452Z,-6.98
2022-12-04T06:02:23.744Z,-6.98
2022-12-04T06:03:26.965Z,-7.02
2022-12-04T06:04:30.109Z,-7.02
2022-12-04T06:05:33.243Z,-7.03
2022-12-04T06:06:37.929Z,-7.03
2022-12-04T06:07:41.151Z,-7.02
2022-12-04T06:08:44.641Z,-7.03
2022-12-04T06:09:47.854Z,-7.01
2022-12-04T06:10:51.035Z,-7.01
2022-12-04T06:11:59.169Z,-7.01
2022-12-04T06:13:02.373Z,-7.02
2022-12-04T06:14:08.262Z,-7.06
2022-12-04T06:15:11.395Z,-7.09
2022-12-04T06:16:23.440Z,-7.11
2022-12-04T06:17:26.586Z,-7.12
2022-12-04T06:18:30.357Z,-7.11
2022-12-04T06:19:33.497Z,-7.11
2022-12-04T06:20:36.750Z,-7.09
2022-12-04T06:21:42.398Z,-7.06
2022-12-04T06:22:45.578Z,-7.06
2022-12-04T06:23:48.929Z,-7.05
2022-12-04T06:24:52.151Z,-7.06
2022-12-04T06:25:56.285Z,-7.06
2022-12-04T06:28:05.590Z,-7.03
2022-12-04T06:29:12.073Z,-7.02
2022-12-04T06:30:15.225Z,-6.99
2022-12-04T06:31:18.481Z,-6.96
2022-12-04T06:32:22.315Z,-6.93
2022-12-04T06:33:25.647Z,-6.90
2022-12-04T06:34:29.196Z,-6.88
2022-12-04T06:35:32.326Z,-6.86
2022-12-04T06:36:35.921Z,-6.84
2022-12-04T06:37:39.162Z,-6.82
2022-12-04T06:38:43.153Z,-6.81
2022-12-04T06:39:46.381Z,-6.79
2022-12-04T06:40:49.605Z,-6.80
2022-12-04T06:41:52.845Z,-6.82
2022-12-04T06:42:57.147Z,-6.83
2022-12-04T06:44:00.448Z,-6.85
2022-12-04T06:45:04.090Z,-6.86
2022-12-04T06:46:11.115Z,-6.86
2022-12-04T06:47:14.387Z,-6.85
2022-12-04T06:48:17.531Z,-6.83
2022-12-04T06:49:22.386Z,-6.82
2022-12-04T06:50:25.639Z,-6.81
2022-12-04T06:51:32.288Z,-6.78
2022-12-04T06:52:35.524Z,-6.77
2022-12-04T06:53:39.015Z,-6.77
2022-12-04T06:54:42.395Z,-6.77
2022-12-04T06:55:48.673Z,-6.77
2022-12-04T06:56:51.986Z,-6.78
2022-12-04T06:57:55.231Z,-6.79
2022-12-04T06:59:00.541Z,-6.79
2022-12-04T07:00:04.777Z,-6.80
2022-12-04T07:01:10.263Z,-6.78
2022-12-04T07:02:13.509Z,-6.79
2022-12-04T07:03:16.881Z,-6.80
2022-12-04T07:04:20.505Z,-6.80
2022-12-04T07:05:23.635Z,-6.80
2022-12-04T07:06:29.161Z,-6.80
2022-12-04T07:07:32.465Z,-6.81
2022-12-04T07:08:35.781Z,-6.83
2022-12-04T07:09:39.047Z,-6.84
2022-12-04T07:10:42.553Z,-6.85
2022-12-04T07:11:45.980Z,-6.84
2022-12-04T07:12:49.252Z,-6.83
2022-12-04T07:13:52.486Z,-6.84
2022-12-04T07:14:55.719Z,-6.81
2022-12-04T07:16:06.684Z,-6.80
2022-12-04T07:17:10.108Z,-6.79
2022-12-04T07:18:13.402Z,-6.78
2022-12-04T07:19:16.693Z,-6.78
2022-12-04T07:20:20.057Z,-6.77
2022-12-04T07:21:26.531Z,-6.78
2022-12-04T07:22:29.821Z,-6.78
2022-12-04T07:23:33.070Z,-6.78
2022-12-04T07:24:38.554Z,-6.75
2022-12-04T07:25:41.686Z,-6.74
2022-12-04T07:26:45.316Z,-6.72
2022-12-04T07:27:48.400Z,-6.71
2022-12-04T07:28:51.479Z,-6.70
2022-12-04T07:29:54.840Z,-6.69
2022-12-04T07:30:58.301Z,-6.69
2022-12-04T07:32:01.437Z,-6.68
2022-12-04T07:33:05.280Z,-6.69
2022-12-04T07:34:08.470Z,-6.67
2022-12-04T07:35:11.589Z,-6.66
2022-12-04T07:36:19.151Z,-6.66
2022-12-04T07:37:22.401Z,-6.66
2022-12-04T07:38:26.011Z,-6.65
2022-12-04T07:39:29.228Z,-6.65
2022-12-04T07:40:32.599Z,-6.66
2022-12-04T07:41:35.784Z,-6.66
2022-12-04T07:42:40.941Z,-6.66
2022-12-04T07:43:44.130Z,-6.66
2022-12-04T07:44:47.595Z,-6.65
2022-12-04T07:45:51.095Z,-6.66
2022-12-04T07:46:54.507Z,-6.65
2022-12-04T07:47:57.666Z,-6.63
2022-12-04T07:49:00.779Z,-6.61
2022-12-04T07:50:05.229Z,-6.59
2022-12-04T07:51:14.498Z,-6.56
2022-12-04T07:52:17.733Z,-6.52
2022-12-04T07:53:20.959Z,-6.50
2022-12-04T07:54:24.060Z,-6.47
2022-12-04T07:55:27.163Z,-6.45
2022-12-04T07:56:30.360Z,-6.43
2022-12-04T07:57:33.708Z,-6.43
2022-12-04T07:58:36.910Z,-6.42
2022-12-04T07:59:40.081Z,-6.41
2022-12-04T08:00:43.165Z,-6.40
2022-12-04T08:01:46.354Z,-6.38
2022-12-04T08:02:50.208Z,-6.35
2022-12-04T08:03:56.132Z,-6.33
2022-12-04T08:04:59.329Z,-6.29
2022-12-04T08:06:04.444Z,-6.25
2022-12-04T08:07:07.736Z,-6.22
2022-12-04T08:08:11.023Z,-6.19
2022-12-04T08:09:14.265Z,-6.15
2022-12-04T08:10:17.942Z,-6.13
2022-12-04T08:11:23.903Z,-6.11
2022-12-04T08:12:27.176Z,-6.10
2022-12-04T08:13:30.419Z,-6.08
2022-12-04T08:14:33.618Z,-6.04
2022-12-04T08:15:36.760Z,-6.02
2022-12-04T08:16:39.998Z,-5.99
2022-12-04T08:17:43.284Z,-5.98
2022-12-04T08:18:48.021Z,-5.95
2022-12-04T08:19:51.244Z,-5.90
2022-12-04T08:20:54.587Z,-5.88
2022-12-04T08:21:57.803Z,-5.85
2022-12-04T08:23:01.093Z,-5.83
2022-12-04T08:24:04.585Z,-5.81
2022-12-04T08:25:08.214Z,-5.79
2022-12-04T08:26:12.165Z,-5.77
2022-12-04T08:27:15.366Z,-5.78
2022-12-04T08:28:18.557Z,-5.77
2022-12-04T08:29:21.672Z,-5.78
2022-12-04T08:30:24.888Z,-5.80
2022-12-04T08:31:30.448Z,-5.80
2022-12-04T08:32:33.619Z,-5.78
2022-12-04T08:33:36.834Z,-5.75
2022-12-04T08:34:40.097Z,-5.73
2022-12-04T08:35:43.408Z,-5.70
2022-12-04T08:36:47.126Z,-5.69
2022-12-04T08:37:50.627Z,-5.69
2022-12-04T08:38:54.336Z,-5.67
2022-12-04T08:39:58.579Z,-5.65
2022-12-04T08:41:04.340Z,-5.63
2022-12-04T08:42:07.682Z,-5.63
2022-12-04T08:43:11.110Z,-5.61
2022-12-04T08:44:14.393Z,-5.57
2022-12-04T08:45:17.656Z,-5.54
2022-12-04T08:46:21.770Z,-5.51
2022-12-04T08:47:25.081Z,-5.48
2022-12-04T08:48:28.611Z,-5.47
2022-12-04T08:49:31.956Z,-5.45
2022-12-04T08:50:35.172Z,-5.44
2022-12-04T08:51:39.249Z,-5.43
2022-12-04T08:52:42.446Z,-5.41
2022-12-04T08:53:46.161Z,-5.43
2022-12-04T08:54:50.586Z,-5.42
2022-12-04T08:55:54.266Z,-5.45
2022-12-04T08:56:57.734Z,-5.47
2022-12-04T08:58:00.948Z,-5.46
2022-12-04T08:59:04.720Z,-5.46
2022-12-04T09:00:09.010Z,-5.46
2022-12-04T09:01:13.624Z,-5.45
2022-12-04T09:02:16.942Z,-5.43
2022-12-04T09:03:23.649Z,-5.43
2022-12-04T09:04:25.779Z,-5.42
2022-12-04T09:05:29.993Z,-5.43
2022-12-04T09:06:33.176Z,-5.44
2022-12-04T09:07:36.418Z,-5.44
2022-12-04T09:08:39.553Z,-5.44
2022-12-04T09:09:48.091Z,-5.43
2022-12-04T09:10:47.816Z,-5.42
2022-12-04T09:11:50.992Z,-5.41
2022-12-04T09:12:54.072Z,-5.42
2022-12-04T09:13:57.225Z,-5.43
2022-12-04T09:15:00.330Z,-5.42
2022-12-04T09:16:06.273Z,-5.42
2022-12-04T09:17:09.535Z,-5.40
2022-12-04T09:18:12.667Z,-5.39
2022-12-04T09:19:16.886Z,-5.38
2022-12-04T09:20:20.370Z,-5.38
2022-12-04T09:21:24.504Z,-5.37
2022-12-04T09:22:40.369Z,-5.39
2022-12-04T09:23:34.469Z,-5.36
2022-12-04T09:24:37.603Z,-5.34
2022-12-04T09:25:40.874Z,-5.33
2022-12-04T09:26:44.425Z,-5.30
2022-12-04T09:27:47.560Z,-5.27
2022-12-04T09:28:51.897Z,-5.25
2022-12-04T09:29:55.321Z,-5.23
2022-12-04T09:31:01.816Z,-5.22
2022-12-04T09:32:05.100Z,-5.22
2022-12-04T09:33:08.248Z,-5.23
2022-12-04T09:34:11.472Z,-5.22
2022-12-04T09:35:14.659Z,-5.21
2022-12-04T09:36:17.966Z,-5.19
2022-12-04T09:37:21.209Z,-5.18
2022-12-04T09:38:24.859Z,-5.16
2022-12-04T09:39:28.075Z,-5.15
2022-12-04T09:40:38.363Z,-5.14
2022-12-04T09:41:54.446Z,-5.13
2022-12-04T09:43:07.266Z,-5.11
2022-12-04T09:45:36.518Z,-4.99
2022-12-04T09:46:52.469Z,-5.10
2022-12-04T09:47:59.226Z,-5.08
2022-12-04T09:49:08.644Z,-5.07
2022-12-04T09:50:18.522Z,-5.08
2022-12-04T09:51:25.678Z,-5.08
2022-12-04T09:52:47.512Z,-5.08
2022-12-04T09:53:54.244Z,-5.10
2022-12-04T09:55:00.022Z,-5.11
2022-12-04T09:56:09.832Z,-5.13
2022-12-04T09:57:19.123Z,-5.14
2022-12-04T09:58:25.808Z,-5.12
2022-12-04T09:59:31.750Z,-5.11
2022-12-04T10:00:38.606Z,-5.12
2022-12-04T10:01:48.313Z,-5.08
2022-12-04T10:02:58.357Z,-5.05
2022-12-04T10:04:06.086Z,-5.02
2022-12-04T10:05:09.608Z,-4.99
2022-12-04T10:06:25.449Z,-4.99
2022-12-04T10:09:23.704Z,-4.87
2022-12-04T10:10:33.238Z,-4.99
2022-12-04T10:11:48.918Z,-4.98
2022-12-04T10:13:03.976Z,-4.97
2022-12-04T10:14:25.725Z,-4.95
2022-12-04T10:15:44.355Z,-4.93
2022-12-04T10:17:10.589Z,-4.93
2022-12-04T10:18:29.254Z,-4.93
2022-12-04T10:19:54.577Z,-4.96
2022-12-04T10:21:04.400Z,-4.98
2022-12-04T10:22:14.191Z,-4.97
2022-12-04T10:23:37.376Z,-4.96
2022-12-04T10:24:53.192Z,-4.96
2022-12-04T10:25:57.101Z,-4.95
2022-12-04T10:27:03.388Z,-4.96
2022-12-04T10:28:34.522Z,-4.95
2022-12-04T10:29:40.583Z,-4.94
2022-12-04T10:30:46.668Z,-4.92
2022-12-04T10:31:53.180Z,-4.92
2022-12-04T10:33:18.135Z,-4.93
2022-12-04T10:34:27.902Z,-4.90
2022-12-04T10:35:33.655Z,-4.88
2022-12-04T10:36:36.781Z,-4.88
2022-12-04T10:37:42.188Z,-4.87
2022-12-04T10:38:58.037Z,-4.85
2022-12-04T10:40:04.815Z,-4.84
2022-12-04T10:41:31.128Z,-4.82
2022-12-04T10:42:46.729Z,-4.81
2022-12-04T10:43:50.962Z,-4.81
2022-12-04T10:44:54.964Z,-4.82
2022-12-04T10:45:58.349Z,-4.83
2022-12-04T10:47:03.760Z,-4.83
2022-12-04T10:48:10.556Z,-4.83
2022-12-04T10:49:23.045Z,-4.81
2022-12-04T10:50:26.267Z,-4.80
2022-12-04T10:51:32.944Z,-4.79
2022-12-04T10:52:36.102Z,-4.77
2022-12-04T10:53:40.527Z,-4.76
2022-12-04T10:54:47.866Z,-4.74
2022-12-04T10:55:51.149Z,-4.74
2022-12-04T10:56:57.309Z,-4.72
2022-12-04T10:58:02.179Z,-4.71
2022-12-04T10:59:05.816Z,-4.70
2022-12-04T11:00:29.991Z,-4.70
2022-12-04T11:01:35.020Z,-4.68
2022-12-04T11:02:39.278Z,-4.66
2022-12-04T11:03:46.089Z,-4.63
2022-12-04T11:04:57.942Z,-4.62
2022-12-04T11:06:06.390Z,-4.59
2022-12-04T11:07:22.299Z,-4.56
2022-12-04T11:09:42.371Z,-4.40
2022-12-04T11:10:45.706Z,-4.49
2022-12-04T11:11:49.105Z,-4.47
2022-12-04T11:12:57.813Z,-4.45
2022-12-04T11:14:15.953Z,-4.41
2022-12-04T11:15:19.304Z,-4.39
2022-12-04T11:16:38.219Z,-4.37
2022-12-04T11:17:41.476Z,-4.35
2022-12-04T11:18:49.354Z,-4.34
2022-12-04T11:20:08.175Z,-4.33
2022-12-04T11:21:21.122Z,-4.31
2022-12-04T11:22:24.440Z,-4.28
2022-12-04T11:23:36.894Z,-4.28
2022-12-04T11:24:42.267Z,-4.28
2022-12-04T11:25:51.657Z,-4.27
2022-12-04T11:26:56.580Z,-4.27
2022-12-04T11:28:02.198Z,-4.26
2022-12-04T11:29:07.160Z,-4.25
2022-12-04T11:30:15.591Z,-4.25
2022-12-04T11:31:21.476Z,-4.25
2022-12-04T11:32:28.338Z,-4.24
2022-12-04T11:33:46.861Z,-4.23
2022-12-04T11:34:51.965Z,-4.23
2022-12-04T11:35:58.578Z,-4.22
2022-12-04T11:37:02.628Z,-4.22
2022-12-04T11:38:09.284Z,-4.22
2022-12-04T11:39:22.047Z,-4.22
2022-12-04T11:40:26.368Z,-4.22
2022-12-04T11:41:32.433Z,-4.22
2022-12-04T11:42:35.744Z,-4.21
2022-12-04T11:43:42.455Z,-4.21
2022-12-04T11:44:54.926Z,-4.20
2022-12-04T11:46:03.776Z,-4.17
2022-12-04T11:47:10.627Z,-4.15
2022-12-04T11:48:16.720Z,-4.14
2022-12-04T11:49:24.781Z,-4.13
2022-12-04T11:50:34.541Z,-4.13
2022-12-04T11:51:59.410Z,-4.11
2022-12-04T11:53:12.056Z,-4.11
2022-12-04T11:54:35.153Z,-4.11
2022-12-04T11:55:44.812Z,-4.10
2022-12-04T11:56:57.896Z,-4.11
2022-12-04T11:58:21.268Z,-4.12
2022-12-04T11:59:36.855Z,-4.11
2022-12-04T12:00:43.636Z,-4.10
2022-12-04T12:02:19.277Z,-4.10
2022-12-04T12:05:24.308Z,-4.02
2022-12-04T12:06:39.622Z,-4.15
2022-12-04T12:08:07.526Z,-4.16
2022-12-04T12:09:19.898Z,-4.17
2022-12-04T12:10:29.450Z,-4.18
2022-12-04T12:11:39.168Z,-4.18
2022-12-04T12:12:57.904Z,-4.19
2022-12-04T12:14:08.361Z,-4.16
2022-12-04T12:15:34.645Z,-4.17
2022-12-04T12:16:59.783Z,-4.15
2022-12-04T12:18:22.508Z,-4.16
2022-12-04T12:19:47.455Z,-4.14
2022-12-04T12:21:12.282Z,-4.15
2022-12-04T12:22:28.072Z,-4.16
2022-12-04T12:23:51.264Z,-4.17
2022-12-04T12:25:03.910Z,-4.18
2022-12-04T12:26:13.604Z,-4.19
2022-12-04T12:27:56.128Z,-4.19
2022-12-04T12:29:17.518Z,-4.19
2022-12-04T12:30:23.158Z,-4.20
2022-12-04T12:31:41.665Z,-4.20
2022-12-04T12:33:18.727Z,-4.19
2022-12-04T12:34:28.529Z,-4.19
2022-12-04T12:35:42.457Z,-4.19
2022-12-04T12:36:49.424Z,-4.19
2022-12-04T12:37:55.981Z,-4.19
2022-12-04T12:39:05.435Z,-4.21
2022-12-04T12:40:34.583Z,-4.20
2022-12-04T12:41:41.358Z,-4.19
2022-12-04T12:44:04.724Z,-4.06
2022-12-04T12:45:27.801Z,-4.16
2022-12-04T12:46:34.752Z,-4.14
2022-12-04T12:47:44.312Z,-4.14
2022-12-04T12:48:59.792Z,-4.13
2022-12-04T12:51:47.635Z,-4.00
2022-12-04T12:53:06.327Z,-4.13
2022-12-04T12:54:34.060Z,-4.12
2022-12-04T12:55:40.788Z,-4.12
2022-12-04T12:56:49.809Z,-4.15
2022-12-04T12:58:02.344Z,-4.16
2022-12-04T12:59:08.809Z,-4.17
2022-12-04T13:00:21.153Z,-4.17
2022-12-04T13:01:49.194Z,-4.18
2022-12-04T13:03:14.761Z,-4.17
2022-12-04T13:04:38.346Z,-4.19
2022-12-04T13:05:45.007Z,-4.22
2022-12-04T13:06:55.073Z,-4.25
2022-12-04T13:08:23.385Z,-4.28
2022-12-04T13:09:31.170Z,-4.29
2022-12-04T13:11:08.096Z,-4.31
2022-12-04T13:12:14.479Z,-4.33
2022-12-04T13:13:25.451Z,-4.35
2022-12-04T13:14:28.700Z,-4.38
2022-12-04T13:15:41.371Z,-4.39
2022-12-04T13:16:57.226Z,-4.39
2022-12-04T13:18:01.633Z,-4.39
2022-12-04T13:19:11.565Z,-4.40
2022-12-04T13:21:47.724Z,-4.30
2022-12-04T13:23:06.266Z,-4.42
2022-12-04T13:24:46.448Z,-4.43
2022-12-04T13:25:53.210Z,-4.43
2022-12-04T13:27:22.099Z,-4.46
2022-12-04T13:28:33.324Z,-4.46
2022-12-04T13:29:49.138Z,-4.47
2022-12-04T13:31:13.978Z,-4.49
2022-12-04T13:32:52.504Z,-4.51
2022-12-04T13:34:01.937Z,-4.51
2022-12-04T13:35:20.867Z,-4.53
2022-12-04T13:36:33.291Z,-4.54
2022-12-04T13:37:56.629Z,-4.54
2022-12-04T13:39:27.519Z,-4.56
2022-12-04T13:40:34.240Z,-4.56
2022-12-04T13:41:38.943Z,-4.55
2022-12-04T13:42:42.261Z,-4.56
2022-12-04T13:43:49.949Z,-4.55
2022-12-04T13:44:57.094Z,-4.55
2022-12-04T13:46:03.984Z,-4.55
2022-12-04T13:47:10.150Z,-4.53
2022-12-04T13:48:13.285Z,-4.54
2022-12-04T13:49:28.950Z,-4.52
2022-12-04T13:50:34.759Z,-4.51
2022-12-04T13:51:41.895Z,-4.51
2022-12-04T13:52:46.901Z,-4.51
2022-12-04T13:55:35.138Z,-4.40
2022-12-04T13:56:43.817Z,-4.51
2022-12-04T13:58:05.576Z,-4.52
2022-12-04T13:59:30.660Z,-4.53
2022-12-04T14:00:35.952Z,-4.53
2022-12-04T14:01:42.475Z,-4.55
2022-12-04T14:02:54.619Z,-4.55
2022-12-04T14:03:59.473Z,-4.55
2022-12-04T14:05:13.949Z,-4.54
2022-12-04T14:06:29.554Z,-4.54
2022-12-04T14:07:38.323Z,-4.52
2022-12-04T14:08:43.422Z,-4.51
2022-12-04T14:09:50.531Z,-4.50
2022-12-04T14:11:00.433Z,-4.50
2022-12-04T14:12:06.721Z,-4.49
2022-12-04T14:13:16.263Z,-4.47
2022-12-04T14:14:31.886Z,-4.46
2022-12-04T14:15:37.530Z,-4.45
2022-12-04T14:16:42.371Z,-4.46
2022-12-04T14:17:49.216Z,-4.45
2022-12-04T14:18:58.745Z,-4.46
2022-12-04T14:20:10.545Z,-4.46
2022-12-04T14:21:09.702Z,-4.45
2022-12-04T14:22:37.317Z,-4.46
2022-12-04T14:23:42.163Z,-4.47
2022-12-04T14:24:45.421Z,-4.47
2022-12-04T14:25:50.445Z,-4.48
2022-12-04T14:27:11.265Z,-4.48
2022-12-04T14:27:58.683Z,-4.48
2022-12-04T14:29:27.624Z,-4.50
2022-12-04T14:30:39.099Z,-4.48
2022-12-04T14:31:42.748Z,-4.49
2022-12-04T14:32:48.658Z,-4.50
2022-12-04T14:34:04.190Z,-4.52
2022-12-04T14:36:27.562Z,-4.40
2022-12-04T14:37:39.563Z,-4.54
2022-12-04T14:38:48.842Z,-4.53
2022-12-04T14:39:52.782Z,-4.55
2022-12-04T14:40:57.890Z,-4.55
2022-12-04T14:42:13.504Z,-4.54
2022-12-04T14:43:22.917Z,-4.52
2022-12-04T14:44:28.924Z,-4.53
2022-12-04T14:45:47.558Z,-4.52
2022-12-04T14:46:53.010Z,-4.51
2022-12-04T14:48:05.546Z,-4.52
2022-12-04T14:49:30.484Z,-4.54
2022-12-04T14:50:43.313Z,-4.55
2022-12-04T14:51:53.051Z,-4.57